Rogart, United Kingdom
Current Conditions -  °F | °C
As of 3:50 PM on Sunday 21 Dec 2014 (Local Time) from EGPE Reporting Station
Moderate Rain Moderate Rain  
Wind Chill: 50°   Ceiling: 3400
Heat Index: 50°   Visibility: 4mi
Dew Point: 48°   Wind: 9mph
Humidity: 94%   Direction: 250°WSW
Pressure: 29.53"   Gusts: NA
Location:  57.99°N, 4.16°W
Report Text: EGPE 211550Z 25008KT 6000 RA FEW015 SCT022 BKN034 10/09 Q1000
Loading
Personal Weather Stations






























Interactive Weather Map New forecast layout! Learn more

10-Day Weather Forecast

Advertisements
Track Severe Weather on mobile